Time;durP1;ratioP1;P1;durP2;ratioP2;P2;SDS_P1;SDS_P2;PMS_P1;PMS_P2;Temp;Humidity;BMP_temperature;BMP_pressure;BME280_temperature;BME280_humidity;BME280_pressure;Samples;Min_cycle;Max_cycle;Signal;HPM_P1;HPM_P2
2021/09/26 00:02:12;;;;;;;;;;;;;;;15.43;85.69;97074.29;115534;1198;24012;-88
2021/09/26 00:04:41;;;;;;;;;;;;;;;15.42;85.73;97071.87;115601;1190;25476;-85
2021/09/26 00:07:12;;;;;;;12.10;8.20;;;;;;;15.41;85.74;97073.71;115511;1198;26136;-86
2021/09/26 00:09:43;;;;;;;12.60;8.80;;;;;;;15.43;85.73;97072.98;115509;1198;27293;-86
2021/09/26 00:12:14;;;;;;;13.50;9.00;;;;;;;15.41;85.79;97069.38;115577;1198;33869;-87
2021/09/26 00:14:44;;;;;;;10.20;7.80;;;;;;;15.41;85.82;97069.53;115604;1198;23735;-88
2021/09/26 00:17:13;;;;;;;;;;;;;;;15.43;85.72;97067.48;115486;1198;24499;-87
2021/09/26 00:19:44;;;;;;;13.50;8.10;;;;;;;15.45;85.69;97070.25;115521;1198;35458;-87
2021/09/26 00:22:15;;;;;;;10.90;7.80;;;;;;;15.46;85.59;97070.83;115569;1184;24440;-87
2021/09/26 00:24:46;;;;;;;10.60;7.10;;;;;;;15.47;85.69;97067.32;115505;1198;26659;-88
2021/09/26 00:27:17;;;;;;;10.40;7.80;;;;;;;15.48;85.51;97064.81;115419;1198;25306;-86
2021/09/26 00:29:47;;;;;;;10.80;8.30;;;;;;;15.47;85.44;97064.39;115458;1198;38297;-87
2021/09/26 00:32:16;;;;;;;;;;;;;;;15.49;85.37;97060.80;115451;1198;26472;-87
2021/09/26 00:34:47;;;;;;;11.10;7.40;;;;;;;15.50;85.28;97056.44;115563;1192;29708;-86
2021/09/26 00:37:19;;;;;;;10.10;7.50;;;;;;;15.53;85.11;97054.89;115565;1190;26787;-87
2021/09/26 00:39:50;;;;;;;9.90;7.50;;;;;;;15.53;85.21;97053.70;115497;1198;27602;-88
2021/09/26 00:42:19;;;;;;;;;;;;;;;15.53;85.17;97053.35;115407;1198;24474;-87
2021/09/26 00:44:50;;;;;;;11.80;7.60;;;;;;;15.52;85.13;97056.61;115526;1198;25807;-88
2021/09/26 00:47:19;;;;;;;;;;;;;;;15.53;84.94;97064.92;115466;1192;26968;-86
2021/09/26 00:49:50;;;;;;;9.10;7.10;;;;;;;15.54;84.96;97062.13;115478;1198;26706;-87
2021/09/26 00:52:21;;;;;;;9.50;7.30;;;;;;;15.55;84.89;97064.30;115463;1184;25983;-87
2021/09/26 00:54:52;;;;;;;8.50;7.10;;;;;;;15.55;84.89;97066.01;115442;1198;24914;-88
2021/09/26 00:57:24;;;;;;;9.20;6.80;;;;;;;15.56;84.91;97064.38;115487;1198;27249;-87
2021/09/26 00:59:56;;;;;;;9.10;6.80;;;;;;;15.55;84.82;97059.69;115506;1198;24842;-88
2021/09/26 01:02:26;;;;;;;10.60;7.20;;;;;;;15.56;84.71;97059.79;115490;1198;25321;-87
2021/09/26 01:04:57;;;;;;;10.10;7.30;;;;;;;15.55;84.75;97059.52;115604;1194;29000;-88
2021/09/26 01:07:32;;;;;;;9.60;6.50;;;;;;;15.56;84.60;97064.00;115672;1198;24427;-87
2021/09/26 01:10:09;;;;;;;10.50;7.50;;;;;;;15.55;84.67;97062.58;115437;1192;26433;-87
2021/09/26 01:12:48;;;;;;;9.60;6.60;;;;;;;15.56;84.58;97062.52;115380;1199;25841;-85
2021/09/26 01:15:25;;;;;;;12.50;7.50;;;;;;;15.57;84.49;97067.29;115580;1193;33186;-87
2021/09/26 01:18:05;;;;;;;10.60;7.00;;;;;;;15.57;84.52;97066.27;115549;1198;25837;-87
2021/09/26 01:20:53;;;;;;;12.50;7.50;;;;;;;15.58;84.38;97064.08;115389;1198;25603;-88
2021/09/26 01:24:08;;;;;;;9.90;7.40;;;;;;;15.58;84.40;97065.56;115421;1198;25285;-87
2021/09/26 01:26:45;;;;;;;11.00;7.30;;;;;;;15.58;84.47;97064.08;115446;1198;29838;-87
2021/09/26 01:29:54;;;;;;;8.50;6.90;;;;;;;15.55;84.45;97068.84;115572;1197;26258;-87
2021/09/26 01:32:29;;;;;;;10.10;7.00;;;;;;;15.55;84.42;97065.10;115255;1194;27504;-87
2021/09/26 01:35:01;;;;;;;10.10;7.10;;;;;;;15.55;84.25;97068.52;115501;1198;27123;-87
2021/09/26 01:37:38;;;;;;;12.50;7.70;;;;;;;15.55;84.16;97058.63;115453;1198;24747;-88
2021/09/26 01:40:14;;;;;;;10.30;6.60;;;;;;;15.56;84.15;97060.70;115429;1198;47690;-87
2021/09/26 01:42:49;;;;;;;8.80;6.40;;;;;;;15.56;84.12;97055.98;115468;1191;26482;-87
2021/09/26 01:45:24;;;;;;;10.20;7.00;;;;;;;15.57;84.15;97059.70;115484;1198;29207;-87
2021/09/26 01:48:02;;;;;;;9.00;6.60;;;;;;;15.57;84.07;97064.48;115432;1198;26470;-88
2021/09/26 01:50:33;;;;;;;10.80;7.10;;;;;;;15.57;84.06;97066.39;115470;1198;27520;-87
2021/09/26 01:53:05;;;;;;;9.40;7.20;;;;;;;15.58;84.02;97067.70;115388;1198;26007;-87
2021/09/26 01:55:37;;;;;;;10.70;7.20;;;;;;;15.59;83.91;97069.55;115473;1198;26267;-88
2021/09/26 01:58:09;;;;;;;8.40;6.80;;;;;;;15.58;83.97;97065.56;115479;1198;25494;-87
2021/09/26 02:00:43;;;;;;;11.80;6.90;;;;;;;15.58;83.98;97062.02;115491;1198;24607;-86
2021/09/26 02:03:14;;;;;;;10.00;7.00;;;;;;;15.56;84.04;97065.28;115543;1198;25156;-87
2021/09/26 02:05:48;;;;;;;11.10;6.40;;;;;;;15.54;84.09;97068.91;115526;1198;25620;-86
2021/09/26 02:08:19;;;;;;;10.60;7.10;;;;;;;15.53;83.99;97070.60;115423;1196;24547;-86
2021/09/26 02:10:52;;;;;;;12.20;6.60;;;;;;;15.54;84.06;97064.02;115440;1198;24878;-87
2021/09/26 02:13:24;;;;;;;10.70;7.60;;;;;;;15.53;84.02;97060.92;115471;1194;27411;-86
2021/09/26 02:15:57;;;;;;;10.40;7.00;;;;;;;15.53;83.94;97064.29;115459;1198;25007;-86
2021/09/26 02:18:27;;;;;;;9.70;7.10;;;;;;;15.54;83.93;97060.90;115470;1198;25744;-87
2021/09/26 02:20:58;;;;;;;9.50;6.40;;;;;;;15.54;83.92;97062.88;115503;1185;26096;-87
2021/09/26 02:23:30;;;;;;;9.00;7.10;;;;;;;15.51;83.92;97064.59;115429;1198;27926;-86
2021/09/26 02:26:02;;;;;;;9.10;5.90;;;;;;;15.49;83.85;97063.04;115463;1192;26148;-86
2021/09/26 02:28:33;;;;;;;8.60;6.80;;;;;;;15.45;83.85;97062.19;115408;1199;25116;-87
2021/09/26 02:31:07;;;;;;;10.90;7.00;;;;;;;15.43;83.82;97065.80;115462;1198;25415;-86
2021/09/26 02:33:40;;;;;;;9.70;6.10;;;;;;;15.40;83.81;97070.48;115456;1198;25466;-87
2021/09/26 02:36:12;;;;;;;9.40;6.20;;;;;;;15.38;83.94;97072.55;115421;1198;36261;-87
2021/09/26 02:38:43;;;;;;;8.90;6.10;;;;;;;15.35;83.93;97074.23;115528;1197;27180;-86
2021/09/26 02:41:20;;;;;;;8.90;6.50;;;;;;;15.33;84.03;97079.08;115502;1199;25119;-87
2021/09/26 02:43:58;;;;;;;11.30;7.20;;;;;;;15.34;83.99;97082.30;115419;1198;27305;-87
2021/09/26 02:46:37;;;;;;;9.40;6.50;;;;;;;15.33;84.00;97081.81;115436;1192;25627;-87
2021/09/26 02:49:09;;;;;;;8.90;6.60;;;;;;;15.33;83.88;97080.27;115467;1198;27228;-87
2021/09/26 02:51:42;;;;;;;11.10;7.00;;;;;;;15.33;83.86;97081.92;115457;1192;26128;-86
2021/09/26 02:54:15;;;;;;;9.10;6.70;;;;;;;15.34;83.80;97081.27;115571;1198;29013;-87
2021/09/26 02:56:47;;;;;;;9.60;6.50;;;;;;;15.34;83.78;97084.42;115575;1198;24204;-87
2021/09/26 02:59:18;;;;;;;11.10;6.80;;;;;;;15.32;83.66;97088.02;115533;1198;27519;-87
2021/09/26 03:01:54;;;;;;;8.50;6.50;;;;;;;15.28;83.64;97087.17;115538;1198;26747;-87
2021/09/26 03:04:25;;;;;;;10.10;6.40;;;;;;;15.23;83.68;97089.94;115627;1198;27498;-86
2021/09/26 03:06:56;;;;;;;9.10;6.30;;;;;;;15.19;83.82;97089.14;115614;1198;41889;-86
2021/09/26 03:09:30;;;;;;;10.20;6.60;;;;;;;15.15;83.83;97088.46;115462;1198;25458;-87
2021/09/26 03:12:00;;;;;;;12.40;6.50;;;;;;;15.13;83.88;97091.39;115540;1198;33932;-87
2021/09/26 03:14:29;;;;;;;;;;;;;;;15.15;83.80;97095.90;115523;1197;24779;-88
2021/09/26 03:17:00;;;;;;;11.00;6.90;;;;;;;15.17;83.72;97096.29;115471;1198;27323;-87
2021/09/26 03:19:30;;;;;;;10.60;7.60;;;;;;;15.17;83.77;97097.45;115442;1192;27499;-87
2021/09/26 03:22:00;;;;;;;;;;;;;;;15.14;83.64;97099.16;115447;1198;27040;-88
2021/09/26 03:24:30;;;;;;;11.30;7.30;;;;;;;15.13;83.68;97095.60;115502;1198;28482;-87
2021/09/26 03:27:03;;;;;;;9.60;6.70;;;;;;;15.12;83.68;97095.52;115523;1198;29708;-87
2021/09/26 03:29:34;;;;;;;7.50;6.30;;;;;;;15.10;83.76;97093.05;115508;1198;30877;-87
2021/09/26 03:32:07;;;;;;;9.10;7.30;;;;;;;15.08;83.71;97089.98;115446;1198;27446;-87
2021/09/26 03:34:38;;;;;;;8.30;6.30;;;;;;;15.06;83.60;97090.92;115428;1198;25173;-87
2021/09/26 03:37:09;;;;;;;9.90;6.40;;;;;;;15.02;83.62;97088.81;115419;1198;34656;-87
2021/09/26 03:39:40;;;;;;;10.20;6.40;;;;;;;14.98;83.65;97093.64;115426;1192;33143;-86
2021/09/26 03:42:11;;;;;;;10.60;7.10;;;;;;;14.95;83.67;97095.69;115401;1198;24566;-86
2021/09/26 03:44:41;;;;;;;10.30;6.80;;;;;;;14.92;83.78;97095.24;115444;1192;25335;-87
2021/09/26 03:47:13;;;;;;;8.70;6.30;;;;;;;14.93;83.77;97095.60;115513;1198;27547;-88
2021/09/26 03:49:44;;;;;;;9.50;7.00;;;;;;;14.97;83.71;97092.23;115558;1192;26053;-87
2021/09/26 03:52:15;;;;;;;9.30;7.20;;;;;;;15.03;83.61;97095.73;115543;1198;26201;-87
2021/09/26 03:54:46;;;;;;;9.00;6.20;;;;;;;15.06;83.53;97103.64;115504;1186;26719;-87
2021/09/26 03:57:17;;;;;;;9.00;6.50;;;;;;;15.04;83.53;97111.67;115528;1198;28568;-86
2021/09/26 03:59:48;;;;;;;9.70;6.90;;;;;;;14.98;83.57;97109.60;115439;1193;44297;-87
2021/09/26 04:02:28;;;;;;;8.80;6.70;;;;;;;14.91;83.63;97108.50;115585;1198;32480;-87
2021/09/26 04:04:59;;;;;;;9.80;6.70;;;;;;;14.86;83.83;97109.98;115576;1198;26949;-86
2021/09/26 04:07:28;;;;;;;;;;;;;;;14.81;83.81;97109.10;115626;1198;27667;-88
2021/09/26 04:09:58;;;;;;;8.70;6.00;;;;;;;14.78;83.89;97109.79;115612;1190;27183;-88
2021/09/26 04:12:29;;;;;;;9.50;6.40;;;;;;;14.73;83.94;97107.36;115628;1198;24707;-87
2021/09/26 04:14:58;;;;;;;;;;;;;;;14.68;84.09;97104.89;115613;1198;34517;-87
2021/09/26 04:17:29;;;;;;;9.60;7.20;;;;;;;14.64;84.11;97111.04;115490;1198;32869;-87
2021/09/26 04:19:59;;;;;;;9.60;7.00;;;;;;;14.61;84.15;97108.56;115433;1198;35036;-87
2021/09/26 04:22:30;;;;;;;7.70;6.00;;;;;;;14.57;84.18;97106.45;115445;1198;28918;-87
2021/09/26 04:25:02;;;;;;;10.00;6.60;;;;;;;14.53;84.18;97107.73;115455;1198;29409;-87
2021/09/26 04:27:32;;;;;;;7.70;6.30;;;;;;;14.49;84.29;97108.48;115417;1198;28191;-88
2021/09/26 04:30:03;;;;;;;8.30;6.30;;;;;;;14.43;84.22;97109.11;115553;1198;37665;-87
2021/09/26 04:32:34;;;;;;;10.00;6.30;;;;;;;14.41;84.41;97113.29;115544;1198;27287;-88
2021/09/26 04:35:07;;;;;;;8.40;5.90;;;;;;;14.40;84.46;97111.48;115611;1198;32672;-88
2021/09/26 04:37:38;;;;;;;11.20;6.90;;;;;;;14.39;84.63;97109.10;115580;1198;28852;-87
2021/09/26 04:40:10;;;;;;;10.20;6.80;;;;;;;14.39;84.73;97115.77;115577;1198;27479;-88
2021/09/26 04:42:41;;;;;;;9.40;7.10;;;;;;;14.37;84.87;97116.55;115595;1190;25583;-87
2021/09/26 04:45:12;;;;;;;8.70;6.60;;;;;;;14.38;85.05;97113.08;115583;1198;33445;-87
2021/09/26 04:47:44;;;;;;;9.40;7.10;;;;;;;14.40;85.17;97120.45;115580;1199;24984;-87
2021/09/26 04:50:15;;;;;;;11.60;6.80;;;;;;;14.44;85.22;97123.23;115509;1198;25923;-87
2021/09/26 04:52:46;;;;;;;7.90;6.10;;;;;;;14.48;85.15;97125.79;115493;1198;35816;-87
2021/09/26 04:55:17;;;;;;;8.70;6.70;;;;;;;14.55;85.24;97125.38;115508;1192;27909;-87
2021/09/26 04:57:47;;;;;;;9.40;6.80;;;;;;;14.63;85.23;97127.16;115451;1198;28198;-86
2021/09/26 05:00:19;;;;;;;8.90;6.60;;;;;;;14.84;85.25;97124.58;115414;1198;28626;-86
2021/09/26 05:02:56;;;;;;;10.50;7.20;;;;;;;15.25;85.16;97121.63;115537;1198;27680;-87
2021/09/26 05:05:27;;;;;;;9.40;6.30;;;;;;;15.67;84.45;97118.66;115446;1198;27232;-88
2021/09/26 05:07:58;;;;;;;9.90;6.50;;;;;;;15.95;83.71;97114.65;115441;1198;28814;-88
2021/09/26 05:10:29;;;;;;;7.10;5.80;;;;;;;16.09;82.90;97117.05;115474;1197;28810;-87
2021/09/26 05:13:00;;;;;;;9.10;6.60;;;;;;;16.26;82.66;97119.65;115404;1192;29727;-87
2021/09/26 05:15:31;;;;;;;7.70;6.10;;;;;;;16.52;81.96;97122.56;115465;1192;29429;-87
2021/09/26 05:18:03;;;;;;;8.40;6.10;;;;;;;16.51;81.23;97125.27;115520;1198;27022;-87
2021/09/26 05:20:34;;;;;;;8.50;6.70;;;;;;;16.30;81.22;97123.31;115419;1186;29555;-88
2021/09/26 05:23:05;;;;;;;7.80;6.20;;;;;;;16.14;81.29;97126.88;115492;1198;26103;-88
2021/09/26 05:25:36;;;;;;;10.30;7.30;;;;;;;16.02;81.45;97131.66;115486;1198;29576;-87
2021/09/26 05:28:07;;;;;;;7.90;6.30;;;;;;;16.00;81.28;97137.65;115450;1198;30125;-87
2021/09/26 05:30:38;;;;;;;8.60;6.70;;;;;;;15.86;81.46;97142.49;115289;1199;27884;-87
2021/09/26 05:33:09;;;;;;;9.50;6.90;;;;;;;15.73;81.81;97146.38;115452;1198;28560;-87
2021/09/26 05:35:40;;;;;;;7.50;5.80;;;;;;;15.66;81.73;97145.14;115442;1198;58417;-87
2021/09/26 05:38:11;;;;;;;10.20;6.40;;;;;;;15.66;82.00;97146.90;115483;1191;36920;-88
2021/09/26 05:40:42;;;;;;;11.00;6.70;;;;;;;15.66;82.15;97147.19;115403;1198;89999;-87
2021/09/26 05:43:12;;;;;;;10.40;7.30;;;;;;;15.69;82.53;97147.85;115508;1197;27999;-87
2021/09/26 05:45:44;;;;;;;9.80;7.00;;;;;;;15.70;82.46;97144.58;115511;1192;30302;-87
2021/09/26 05:48:15;;;;;;;9.50;7.00;;;;;;;15.72;82.48;97146.17;115516;1193;38354;-87
2021/09/26 05:50:46;;;;;;;8.70;6.30;;;;;;;15.81;82.58;97145.15;115514;1198;26822;-87
2021/09/26 05:53:17;;;;;;;9.00;6.20;;;;;;;15.98;82.47;97146.58;115469;1184;40721;-88
2021/09/26 05:55:47;;;;;;;8.30;5.90;;;;;;;16.11;82.15;97147.96;115359;1194;37161;-86
2021/09/26 05:58:19;;;;;;;9.60;6.20;;;;;;;16.28;82.11;97143.25;115376;1198;30510;-87
2021/09/26 06:00:50;;;;;;;8.30;6.30;;;;;;;16.58;81.70;97147.24;115480;1198;29189;-87
2021/09/26 06:03:21;;;;;;;8.00;6.00;;;;;;;16.88;81.11;97149.44;115455;1198;25739;-87
2021/09/26 06:05:52;;;;;;;8.70;5.70;;;;;;;17.08;80.19;97143.73;115475;1198;28046;-87
2021/09/26 06:08:26;;;;;;;7.90;6.10;;;;;;;17.24;79.50;97144.63;115449;1198;27193;-87
2021/09/26 06:10:57;;;;;;;7.00;5.80;;;;;;;17.51;78.58;97145.69;115455;1198;26790;-87
2021/09/26 06:13:28;;;;;;;7.80;5.90;;;;;;;17.66;77.78;97149.09;115502;1198;69360;-88
2021/09/26 06:16:01;;;;;;;7.40;6.00;;;;;;;17.90;77.13;97151.23;115399;1198;28941;-87
2021/09/26 06:18:32;;;;;;;8.20;5.60;;;;;;;18.37;76.53;97151.70;115384;1193;26981;-87
2021/09/26 06:21:03;;;;;;;7.70;6.20;;;;;;;18.64;75.38;97154.61;115493;1192;26225;-87
2021/09/26 06:23:34;;;;;;;8.60;5.90;;;;;;;19.19;74.73;97158.09;115532;1192;27533;-87
2021/09/26 06:26:05;;;;;;;8.20;5.70;;;;;;;19.70;73.83;97160.56;115481;1198;26303;-88
2021/09/26 06:28:36;;;;;;;8.20;5.40;;;;;;;21.10;72.68;97153.72;115490;1198;27296;-87
2021/09/26 06:31:07;;;;;;;8.20;4.80;;;;;;;22.09;69.06;97152.86;115455;1198;27158;-86
2021/09/26 06:33:40;;;;;;;12.00;5.30;;;;;;;22.26;66.19;97153.45;115401;1198;70542;-87
2021/09/26 06:36:12;;;;;;;6.30;5.00;;;;;;;21.86;65.87;97152.48;115498;1198;25112;-88
2021/09/26 06:38:43;;;;;;;8.00;5.30;;;;;;;21.65;66.37;97154.70;115464;1198;25741;-88
2021/09/26 06:41:15;;;;;;;7.00;5.00;;;;;;;21.48;65.78;97161.36;115479;1199;24814;-88
2021/09/26 06:43:47;;;;;;;6.90;5.30;;;;;;;21.41;66.26;97161.59;115505;1198;31206;-88
2021/09/26 06:46:18;;;;;;;8.60;5.90;;;;;;;21.37;65.19;97162.25;115568;1198;24763;-87
2021/09/26 06:48:49;;;;;;;8.00;5.80;;;;;;;21.17;65.71;97162.23;115657;1193;25325;-87
2021/09/26 06:51:20;;;;;;;7.90;5.80;;;;;;;20.95;65.46;97164.21;115465;1198;24791;-86
2021/09/26 06:53:51;;;;;;;7.60;5.50;;;;;;;20.57;65.18;97167.80;115617;1198;31934;-87
2021/09/26 06:56:21;;;;;;;6.50;5.40;;;;;;;20.31;66.53;97169.73;115581;1198;28400;-87
2021/09/26 06:58:52;;;;;;;9.10;6.40;;;;;;;20.26;66.47;97168.00;115581;1198;27066;-88
2021/09/26 07:01:23;;;;;;;9.50;6.10;;;;;;;19.97;66.43;97166.81;115635;1198;24072;-88
2021/09/26 07:03:54;;;;;;;9.70;5.90;;;;;;;19.77;67.14;97171.09;115626;1198;26309;-88
2021/09/26 07:06:25;;;;;;;9.00;6.70;;;;;;;19.58;67.38;97174.85;115520;1198;27685;-87
2021/09/26 07:08:56;;;;;;;8.40;5.80;;;;;;;19.52;68.08;97177.66;115559;1198;24983;-88
2021/09/26 07:11:27;;;;;;;8.50;5.90;;;;;;;19.50;67.96;97178.13;115427;1198;25325;-87
2021/09/26 07:13:58;;;;;;;9.10;6.10;;;;;;;19.31;67.58;97180.55;115481;1199;25698;-87
2021/09/26 07:16:28;;;;;;;8.30;6.30;;;;;;;19.15;68.05;97179.39;115478;1198;25111;-85
2021/09/26 07:18:59;;;;;;;9.40;6.00;;;;;;;19.05;68.26;97179.44;115506;1198;26240;-87
2021/09/26 07:21:30;;;;;;;10.00;6.30;;;;;;;19.06;68.69;97180.39;115579;1198;27277;-86
2021/09/26 07:24:01;;;;;;;7.70;6.20;;;;;;;19.37;69.58;97189.17;115440;1198;30968;-88
2021/09/26 07:26:32;;;;;;;9.80;5.90;;;;;;;19.57;68.10;97185.09;115475;1198;46430;-86
2021/09/26 07:29:03;;;;;;;7.70;6.10;;;;;;;19.51;68.29;97187.07;115550;1198;28902;-87
2021/09/26 07:31:34;;;;;;;8.70;5.80;;;;;;;19.55;68.10;97186.47;115485;1198;27665;-87
2021/09/26 07:34:05;;;;;;;8.70;6.20;;;;;;;19.69;67.93;97189.98;115475;1199;26616;-87
2021/09/26 07:36:36;;;;;;;7.60;5.90;;;;;;;19.72;67.65;97187.95;115489;1198;29447;-87
2021/09/26 07:39:08;;;;;;;7.30;5.20;;;;;;;19.78;67.38;97190.55;115583;1197;27191;-87
2021/09/26 07:41:39;;;;;;;8.30;5.60;;;;;;;19.95;67.47;97193.73;115504;1198;24198;-87
2021/09/26 07:44:10;;;;;;;6.90;5.80;;;;;;;20.18;67.34;97198.23;115432;1194;27140;-88
2021/09/26 07:46:43;;;;;;;8.00;5.60;;;;;;;20.57;67.26;97199.20;115402;1193;25814;-88
2021/09/26 07:49:15;;;;;;;7.70;5.60;;;;;;;21.05;66.00;97196.30;115560;1198;25689;-87
2021/09/26 07:51:46;;;;;;;8.20;5.80;;;;;;;20.96;65.04;97193.38;115689;1198;25402;-87
2021/09/26 07:54:16;;;;;;;7.80;5.20;;;;;;;20.86;65.30;97194.96;115473;1194;27143;-87
2021/09/26 07:56:47;;;;;;;9.10;6.00;;;;;;;21.07;65.82;97195.61;115432;1198;28230;-87
2021/09/26 07:59:19;;;;;;;8.20;5.10;;;;;;;21.54;66.29;97196.41;115397;1199;32519;-87
2021/09/26 08:01:50;;;;;;;9.50;5.50;;;;;;;22.30;65.20;97194.64;115498;1198;25736;-88
2021/09/26 08:04:21;;;;;;;6.90;4.50;;;;;;;23.08;65.02;97194.82;115631;1198;26312;-88
2021/09/26 08:06:52;;;;;;;6.50;5.00;;;;;;;23.59;63.06;97196.56;115436;1199;24745;-87
2021/09/26 08:09:23;;;;;;;8.20;5.50;;;;;;;23.73;61.86;97195.38;115424;1184;26735;-88
2021/09/26 08:11:54;;;;;;;7.50;4.80;;;;;;;24.07;62.29;97191.41;115501;1198;27260;-88
2021/09/26 08:14:25;;;;;;;8.10;4.80;;;;;;;24.29;61.36;97194.15;115513;1198;25510;-88
2021/09/26 08:16:56;;;;;;;6.60;5.30;;;;;;;23.91;59.50;97193.64;115546;1198;28461;-88
2021/09/26 08:19:26;;;;;;;7.40;4.90;;;;;;;23.46;59.64;97193.27;115512;1198;26323;-87
2021/09/26 08:21:57;;;;;;;7.20;5.30;;;;;;;23.08;59.28;97191.27;115366;1199;23777;-87
2021/09/26 08:24:28;;;;;;;8.20;4.90;;;;;;;22.90;59.97;97191.39;115429;1199;27346;-88
2021/09/26 08:26:59;;;;;;;10.10;4.90;;;;;;;22.78;59.99;97193.35;115449;1184;25694;-87
2021/09/26 08:29:30;;;;;;;5.80;4.80;;;;;;;22.74;61.11;97191.77;115434;1199;25966;-88
2021/09/26 08:32:01;;;;;;;7.40;4.70;;;;;;;22.92;61.44;97191.20;115498;1198;33487;-87
2021/09/26 08:34:32;;;;;;;5.70;4.40;;;;;;;23.01;60.36;97188.44;115446;1192;27135;-87
2021/09/26 08:37:04;;;;;;;8.50;5.00;;;;;;;22.65;59.96;97189.17;115438;1197;25886;-87
2021/09/26 08:39:35;;;;;;;6.20;4.90;;;;;;;22.37;59.97;97190.23;115480;1199;27433;-87
2021/09/26 08:42:07;;;;;;;6.00;4.60;;;;;;;22.24;61.16;97185.64;115428;1198;25584;-87
2021/09/26 08:44:39;;;;;;;6.20;4.60;;;;;;;22.37;61.88;97181.71;115518;1198;27276;-86
2021/09/26 08:47:10;;;;;;;6.40;4.60;;;;;;;22.46;61.98;97184.84;115524;1198;24828;-87
2021/09/26 08:49:42;;;;;;;5.00;4.30;;;;;;;22.32;61.17;97190.20;115416;1199;25933;-87
2021/09/26 08:52:13;;;;;;;6.30;4.30;;;;;;;22.34;62.67;97185.32;115562;1190;27284;-88
2021/09/26 08:54:44;;;;;;;7.00;4.80;;;;;;;22.54;62.65;97183.90;115492;1198;26087;-88
2021/09/26 08:57:15;;;;;;;6.40;4.40;;;;;;;22.69;62.81;97185.73;115504;1193;26021;-87
2021/09/26 08:59:46;;;;;;;6.10;4.40;;;;;;;22.83;62.80;97184.00;115434;1193;27638;-87
2021/09/26 09:02:18;;;;;;;5.80;4.20;;;;;;;22.86;61.97;97183.95;115519;1198;27857;-87
2021/09/26 09:04:49;;;;;;;6.40;4.40;;;;;;;22.64;61.09;97185.96;115545;1194;24642;-86
2021/09/26 09:07:20;;;;;;;6.10;4.10;;;;;;;22.31;61.12;97180.61;115613;1198;26205;-87
2021/09/26 09:09:53;;;;;;;6.80;4.30;;;;;;;22.28;61.58;97182.21;115612;1198;29264;-87
2021/09/26 09:12:31;;;;;;;7.60;4.80;;;;;;;22.26;61.84;97183.17;115567;1198;25520;-86
2021/09/26 09:15:06;;;;;;;6.20;4.70;;;;;;;22.16;61.92;97184.80;115371;1199;28387;-87
2021/09/26 09:17:39;;;;;;;6.40;4.70;;;;;;;22.20;62.32;97185.52;115368;1198;26760;-87
2021/09/26 09:20:22;;;;;;;7.30;4.40;;;;;;;22.22;62.69;97182.95;115561;1198;26207;-87
2021/09/26 09:22:56;;;;;;;5.90;4.60;;;;;;;22.29;62.43;97182.25;115527;1198;27969;-86
2021/09/26 09:25:42;;;;;;;6.60;4.80;;;;;;;22.33;62.24;97179.27;115518;1198;25284;-86
2021/09/26 09:28:16;;;;;;;5.70;4.60;;;;;;;22.33;62.56;97176.58;115475;1198;34761;-87
2021/09/26 09:30:49;;;;;;;6.20;4.50;;;;;;;22.15;61.98;97177.18;115532;1197;26749;-86
2021/09/26 09:33:22;;;;;;;7.00;5.00;;;;;;;21.87;62.14;97174.81;115449;1198;25965;-86
2021/09/26 09:35:55;;;;;;;6.70;5.10;;;;;;;21.75;62.93;97180.00;115501;1198;27171;-87
2021/09/26 09:38:38;;;;;;;9.30;5.20;;;;;;;21.88;63.81;97179.16;115464;1198;26164;-88
2021/09/26 09:41:09;;;;;;;7.40;4.80;;;;;;;22.04;63.64;97177.66;115482;1198;24864;-87
2021/09/26 09:43:50;;;;;;;5.30;4.30;;;;;;;21.94;63.08;97174.90;115478;1198;24942;-86
2021/09/26 09:46:33;;;;;;;5.50;4.60;;;;;;;21.92;63.99;97171.20;115419;1193;30070;-86
2021/09/26 09:49:17;;;;;;;7.60;4.70;;;;;;;21.99;63.99;97170.11;115436;1198;32068;-87
2021/09/26 09:51:52;;;;;;;6.10;5.30;;;;;;;22.07;63.93;97171.83;115625;1198;24550;-86
2021/09/26 09:54:33;;;;;;;7.40;5.10;;;;;;;22.13;64.22;97171.76;115559;1198;24187;-86
2021/09/26 09:57:15;;;;;;;7.20;5.10;;;;;;;22.21;63.97;97173.51;115550;1197;25521;-87
2021/09/26 09:59:47;;;;;;;6.30;5.20;;;;;;;22.07;62.88;97175.16;115625;1198;26765;-87
2021/09/26 10:02:18;;;;;;;8.30;5.50;;;;;;;21.88;63.03;97175.23;115646;1198;25856;-87
2021/09/26 10:04:50;;;;;;;8.00;5.10;;;;;;;21.92;64.54;97173.35;115658;1197;30138;-85
2021/09/26 10:07:27;;;;;;;5.90;4.60;;;;;;;22.17;65.09;97172.40;115575;1198;26696;-87
2021/09/26 10:09:59;;;;;;;7.30;5.30;;;;;;;22.33;64.49;97172.94;115426;1198;29332;-87
2021/09/26 10:12:33;;;;;;;6.80;5.40;;;;;;;22.41;64.85;97169.48;115350;1199;25729;-87
2021/09/26 10:15:07;;;;;;;7.10;5.30;;;;;;;22.52;64.48;97170.64;115615;1198;23459;-86
2021/09/26 10:17:39;;;;;;;7.90;5.40;;;;;;;22.49;63.97;97174.02;115471;1198;25501;-86
2021/09/26 10:20:12;;;;;;;6.30;4.90;;;;;;;22.51;63.69;97172.46;115444;1197;25060;-86
2021/09/26 10:22:43;;;;;;;6.90;5.70;;;;;;;22.32;63.18;97174.86;115545;1198;39521;-85
2021/09/26 10:25:14;;;;;;;7.60;4.90;;;;;;;22.33;64.17;97174.27;115483;1192;24952;-87
2021/09/26 10:27:46;;;;;;;7.10;5.20;;;;;;;22.47;64.20;97171.75;115432;1198;27407;-87
2021/09/26 10:30:18;;;;;;;8.80;5.80;;;;;;;22.49;63.75;97171.18;115413;1199;28129;-87
2021/09/26 10:32:50;;;;;;;7.30;5.80;;;;;;;22.37;63.56;97171.15;115422;1198;27255;-85
2021/09/26 10:35:21;;;;;;;7.60;6.00;;;;;;;22.37;64.57;97169.44;115384;1198;25622;-86
2021/09/26 10:37:54;;;;;;;7.70;5.80;;;;;;;22.49;64.94;97170.27;115547;1198;26403;-86
2021/09/26 10:40:25;;;;;;;6.80;5.20;;;;;;;22.56;64.33;97168.52;115463;1194;23760;-86
2021/09/26 10:42:56;;;;;;;7.10;5.20;;;;;;;22.40;62.88;97167.36;115430;1193;26803;-86
2021/09/26 10:45:29;;;;;;;7.60;5.70;;;;;;;22.31;63.59;97163.33;115512;1198;28096;-87
2021/09/26 10:47:59;;;;;;;8.10;5.90;;;;;;;22.35;63.83;97162.80;115484;1198;25029;-87
2021/09/26 10:50:39;;;;;;;7.60;5.40;;;;;;;22.31;63.54;97160.25;115542;1198;28149;-87
2021/09/26 10:53:12;;;;;;;7.60;5.30;;;;;;;22.29;64.71;97158.25;115501;1198;27438;-85
2021/09/26 10:55:44;;;;;;;7.60;5.70;;;;;;;22.45;65.01;97158.33;115411;1198;51101;-85
2021/09/26 10:58:20;;;;;;;8.30;5.20;;;;;;;22.57;65.24;97151.35;115594;1198;24514;-85
2021/09/26 11:01:02;;;;;;;8.60;6.00;;;;;;;22.60;64.03;97150.48;115620;1198;27541;-85
2021/09/26 11:03:41;;;;;;;6.70;5.10;;;;;;;22.59;64.35;97153.72;115691;1198;24752;-87
2021/09/26 11:06:30;;;;;;;5.80;4.90;;;;;;;22.71;64.46;97152.06;115579;1198;30770;-87
2021/09/26 11:09:02;;;;;;;6.10;4.70;;;;;;;22.83;64.52;97151.69;115409;1193;34488;-87
2021/09/26 11:11:45;;;;;;;6.50;4.80;;;;;;;22.90;63.85;97151.38;115437;1198;30665;-87
2021/09/26 11:14:17;;;;;;;6.70;4.50;;;;;;;22.94;63.91;97147.92;115519;1198;26877;-86
2021/09/26 11:16:56;;;;;;;6.90;5.00;;;;;;;22.99;63.09;97152.94;115524;1198;26281;-87
2021/09/26 11:19:29;;;;;;;8.00;5.40;;;;;;;22.90;61.78;97148.74;115453;1198;27168;-87
2021/09/26 11:22:06;;;;;;;6.60;5.10;;;;;;;22.74;61.78;97144.56;115410;1199;28417;-87
2021/09/26 11:24:57;;;;;;;6.40;5.10;;;;;;;22.75;61.47;97142.73;115447;1198;34040;-87
2021/09/26 11:27:40;;;;;;;6.60;4.90;;;;;;;22.77;62.24;97143.10;115468;1197;27933;-86
2021/09/26 11:30:26;;;;;;;6.00;5.00;;;;;;;22.90;62.67;97139.00;115608;1190;25434;-88
2021/09/26 11:33:07;;;;;;;7.90;5.40;;;;;;;23.04;62.51;97135.98;115589;1190;27593;-87
2021/09/26 11:35:40;;;;;;;6.90;5.00;;;;;;;22.97;62.01;97137.96;115517;1198;27305;-87
2021/09/26 11:38:20;;;;;;;6.80;5.40;;;;;;;22.93;61.19;97135.69;115448;1198;28110;-87
2021/09/26 11:41:10;;;;;;;7.20;5.20;;;;;;;22.77;61.26;97131.84;115521;1192;41973;-85
2021/09/26 11:44:00;;;;;;;7.90;5.70;;;;;;;22.78;62.23;97126.67;115530;1198;26399;-86
2021/09/26 11:46:32;;;;;;;7.40;5.70;;;;;;;22.87;61.89;97122.85;115557;1198;25362;-87
2021/09/26 11:49:07;;;;;;;6.40;4.90;;;;;;;22.95;62.05;97119.84;115487;1198;26852;-87
2021/09/26 11:51:39;;;;;;;7.80;5.20;;;;;;;23.03;62.70;97120.50;115402;1198;26444;-87
2021/09/26 11:54:12;;;;;;;9.50;5.70;;;;;;;23.08;62.11;97118.41;115511;1198;24804;-87